createdAt,value
2023-01-06T00:00:47.492Z,76.57
2023-01-06T00:06:01.937Z,76.84
2023-01-06T00:11:11.764Z,76.36
2023-01-06T00:16:22.080Z,76.29
2023-01-06T00:21:30.211Z,76.33
2023-01-06T00:26:37.483Z,76.99
2023-01-06T00:31:42.931Z,77.37
2023-01-06T00:36:50.214Z,77.27
2023-01-06T00:42:07.938Z,77.11
2023-01-06T00:47:14.903Z,75.77
2023-01-06T00:52:22.011Z,75.24
2023-01-06T01:03:06.902Z,75.94
2023-01-06T01:08:16.039Z,76.57
2023-01-06T01:13:23.968Z,75.85
2023-01-06T01:18:31.719Z,75.97
2023-01-06T01:23:39.244Z,75.95
2023-01-06T01:28:46.982Z,75.96
2023-01-06T01:33:54.538Z,76.21
2023-01-06T01:39:02.178Z,75.86
2023-01-06T01:44:36.221Z,76.01
2023-01-06T01:49:45.988Z,76.01
2023-01-06T01:54:55.772Z,76.13
2023-01-06T02:00:05.900Z,76.57
2023-01-06T02:05:15.783Z,76.68
2023-01-06T02:10:27.086Z,77.28
2023-01-06T02:15:35.705Z,77.22
2023-01-06T02:21:05.932Z,76.85
2023-01-06T02:26:48.663Z,76.91
2023-01-06T02:32:16.246Z,77.19
2023-01-06T02:37:29.444Z,77.14
2023-01-06T02:42:46.753Z,77.36
2023-01-06T02:48:02.046Z,77.69
2023-01-06T03:01:30.632Z,77.85
2023-01-06T03:06:44.948Z,78.30
2023-01-06T03:11:54.491Z,78.25
2023-01-06T03:17:02.200Z,78.30
2023-01-06T03:22:10.874Z,78.25
2023-01-06T03:27:20.693Z,78.23
2023-01-06T03:32:34.589Z,78.70
2023-01-06T03:37:52.957Z,78.71
2023-01-06T03:43:16.662Z,78.90
2023-01-06T03:48:35.574Z,79.16
2023-01-06T03:53:49.745Z,78.95
2023-01-06T03:59:00.636Z,79.22
2023-01-06T04:04:08.344Z,79.25
2023-01-06T04:09:15.956Z,79.39
2023-01-06T04:14:23.852Z,79.48
2023-01-06T04:19:32.204Z,79.43
2023-01-06T04:24:40.044Z,79.68
2023-01-06T04:29:47.940Z,79.64
2023-01-06T04:34:56.052Z,79.68
2023-01-06T04:40:04.378Z,80.06
2023-01-06T04:45:13.207Z,80.22
2023-01-06T04:50:22.244Z,80.23
2023-01-06T04:55:30.345Z,80.40
2023-01-06T05:00:37.932Z,80.37
2023-01-06T05:05:46.104Z,80.56
2023-01-06T05:11:00.523Z,80.85
2023-01-06T05:16:13.053Z,81.11
2023-01-06T05:29:37.542Z,81.19
2023-01-06T05:34:45.773Z,81.35
2023-01-06T05:39:54.840Z,81.52
2023-01-06T05:45:02.215Z,81.54
2023-01-06T05:50:12.048Z,81.73
2023-01-06T05:55:19.577Z,82.11
2023-01-06T06:00:27.899Z,82.11
2023-01-06T06:05:35.234Z,82.46
2023-01-06T06:10:42.603Z,82.80
2023-01-06T06:15:49.971Z,83.07
2023-01-06T06:21:04.241Z,83.34
2023-01-06T06:26:13.121Z,83.67
2023-01-06T06:31:23.239Z,83.98
2023-01-06T06:36:32.335Z,84.48
2023-01-06T06:41:39.983Z,84.56
2023-01-06T06:46:47.501Z,84.68
2023-01-06T06:51:55.739Z,84.78
2023-01-06T06:57:03.406Z,85.21
2023-01-06T07:02:11.642Z,85.27
2023-01-06T07:07:19.647Z,84.82
2023-01-06T07:12:28.041Z,84.67
2023-01-06T07:17:35.877Z,84.69
2023-01-06T07:22:45.148Z,84.61
2023-01-06T07:27:59.176Z,84.59
2023-01-06T07:33:07.119Z,84.57
2023-01-06T07:38:14.590Z,84.47
2023-01-06T07:43:22.252Z,84.36
2023-01-06T07:48:30.276Z,84.25
2023-01-06T07:53:38.553Z,84.36
2023-01-06T07:58:45.956Z,84.04
2023-01-06T08:03:53.192Z,84.13
2023-01-06T08:09:00.978Z,84.49
2023-01-06T08:14:08.480Z,84.13
2023-01-06T08:19:16.204Z,84.18
2023-01-06T08:24:23.705Z,84.08
2023-01-06T08:29:32.040Z,84.02
2023-01-06T08:34:39.878Z,84.00
2023-01-06T08:39:47.767Z,83.80
2023-01-06T08:44:56.739Z,83.33
2023-01-06T08:50:04.133Z,83.04
2023-01-06T08:55:12.301Z,82.44
2023-01-06T09:00:21.168Z,82.35
2023-01-06T09:05:29.710Z,82.13
2023-01-06T09:10:40.311Z,81.35
2023-01-06T09:15:49.316Z,80.79
2023-01-06T09:20:58.664Z,80.20
2023-01-06T09:26:07.110Z,79.23
2023-01-06T09:31:14.952Z,79.56
2023-01-06T09:36:23.134Z,79.52
2023-01-06T09:41:55.221Z,79.96
2023-01-06T09:47:04.377Z,80.41
2023-01-06T09:52:18.818Z,80.28
2023-01-06T09:57:34.927Z,78.95
2023-01-06T10:02:44.052Z,78.13
2023-01-06T10:08:00.189Z,77.72
2023-01-06T10:13:24.616Z,78.11
2023-01-06T10:18:41.032Z,78.29
2023-01-06T10:24:18.187Z,78.46
2023-01-06T10:29:31.184Z,77.67
2023-01-06T10:34:39.143Z,76.94
2023-01-06T10:39:49.678Z,77.04
2023-01-06T10:44:58.586Z,75.55
2023-01-06T10:50:06.736Z,75.63
2023-01-06T10:55:29.659Z,74.85
2023-01-06T11:00:37.207Z,74.30
2023-01-06T11:05:45.106Z,74.63
2023-01-06T11:10:58.685Z,74.41
2023-01-06T11:16:09.701Z,74.11
2023-01-06T11:21:18.650Z,73.37
2023-01-06T11:26:28.421Z,74.42
2023-01-06T11:31:36.991Z,75.07
2023-01-06T11:36:48.568Z,75.67
2023-01-06T11:41:58.089Z,75.85
2023-01-06T11:47:09.253Z,74.86
2023-01-06T11:52:27.653Z,74.95
2023-01-06T11:57:43.101Z,75.92
2023-01-06T12:02:57.763Z,76.12
2023-01-06T12:08:12.118Z,75.86
2023-01-06T12:13:19.650Z,76.35
2023-01-06T12:18:31.622Z,76.02
2023-01-06T12:23:41.526Z,75.91
2023-01-06T12:28:51.611Z,75.69
2023-01-06T12:34:03.306Z,75.49
2023-01-06T12:39:19.420Z,75.41
2023-01-06T12:44:39.331Z,74.78
2023-01-06T12:49:56.223Z,74.55
2023-01-06T12:55:06.566Z,74.80
2023-01-06T13:00:43.659Z,76.05
2023-01-06T13:06:02.652Z,76.35
2023-01-06T13:11:24.437Z,76.12
2023-01-06T13:16:39.315Z,76.64
2023-01-06T13:21:48.538Z,76.21
2023-01-06T13:27:22.622Z,76.06
2023-01-06T13:32:57.264Z,75.78
2023-01-06T13:38:19.955Z,76.43
2023-01-06T13:43:31.653Z,76.15
2023-01-06T13:48:43.748Z,75.85
2023-01-06T13:53:51.381Z,75.99
2023-01-06T13:59:25.388Z,76.07
2023-01-06T14:04:49.786Z,76.56
2023-01-06T14:09:58.051Z,76.68
2023-01-06T14:15:09.346Z,76.83
2023-01-06T14:20:32.308Z,76.53
2023-01-06T14:25:44.109Z,76.86
2023-01-06T14:30:52.767Z,77.63
2023-01-06T14:36:12.018Z,78.12
2023-01-06T14:41:28.118Z,78.66
2023-01-06T14:46:44.601Z,78.03
2023-01-06T14:51:55.294Z,78.65
2023-01-06T14:57:09.844Z,78.50
2023-01-06T15:02:18.882Z,78.95
2023-01-06T15:07:27.383Z,79.05
2023-01-06T15:12:36.272Z,79.43
2023-01-06T15:17:44.598Z,79.69
2023-01-06T15:22:53.258Z,79.50
2023-01-06T15:28:00.691Z,79.64
2023-01-06T15:33:10.826Z,79.79
2023-01-06T15:38:31.553Z,79.71
2023-01-06T15:43:45.762Z,79.68
2023-01-06T15:48:54.046Z,79.69
2023-01-06T15:54:02.550Z,79.95
2023-01-06T15:59:18.266Z,79.61
2023-01-06T16:04:27.689Z,79.78
2023-01-06T16:09:38.424Z,79.91
2023-01-06T16:14:49.776Z,79.96
2023-01-06T16:20:03.549Z,79.92
2023-01-06T16:25:27.286Z,80.15
2023-01-06T16:30:36.909Z,79.94
2023-01-06T16:35:45.473Z,80.23
2023-01-06T16:40:55.744Z,80.28
2023-01-06T16:46:12.009Z,80.59
2023-01-06T16:51:20.056Z,80.59
2023-01-06T16:56:27.776Z,81.03
2023-01-06T17:01:37.344Z,80.89
2023-01-06T17:06:47.723Z,81.05
2023-01-06T17:11:59.303Z,80.93
2023-01-06T17:17:21.916Z,81.58
2023-01-06T17:22:31.758Z,81.81
2023-01-06T17:27:40.781Z,81.71
2023-01-06T17:32:49.525Z,82.06
2023-01-06T17:38:00.359Z,81.53
2023-01-06T17:43:17.946Z,81.57
2023-01-06T17:48:27.480Z,82.17
2023-01-06T17:53:55.829Z,82.29
2023-01-06T17:59:13.878Z,82.24
2023-01-06T18:04:25.938Z,82.36
2023-01-06T18:09:33.403Z,82.34
2023-01-06T18:14:46.050Z,82.24
2023-01-06T18:19:54.930Z,82.71
2023-01-06T18:25:03.663Z,82.61
2023-01-06T18:30:21.776Z,83.06
2023-01-06T18:35:31.505Z,83.88
2023-01-06T18:40:40.560Z,84.91
2023-01-06T18:45:51.905Z,85.71
2023-01-06T18:51:02.030Z,86.39
2023-01-06T18:56:16.830Z,87.18
2023-01-06T19:01:28.193Z,87.73
2023-01-06T19:06:40.531Z,88.49
2023-01-06T19:11:49.191Z,88.95
2023-01-06T19:16:58.284Z,89.32
2023-01-06T19:22:20.220Z,89.42
2023-01-06T19:27:43.772Z,89.75
2023-01-06T19:32:51.211Z,89.65
2023-01-06T19:38:06.888Z,89.69
2023-01-06T19:43:19.323Z,89.83
2023-01-06T19:48:31.029Z,90.08
2023-01-06T19:53:46.555Z,90.31
2023-01-06T19:58:59.144Z,90.56
2023-01-06T20:04:18.950Z,91.07
2023-01-06T20:09:27.363Z,91.20
2023-01-06T20:14:35.279Z,91.46
2023-01-06T20:19:44.401Z,91.52
2023-01-06T20:24:52.053Z,91.98
2023-01-06T20:30:05.095Z,92.89
2023-01-06T20:35:14.649Z,94.06
2023-01-06T20:40:22.378Z,95.44
2023-01-06T20:45:31.054Z,96.46
2023-01-06T20:50:39.411Z,95.98
2023-01-06T20:55:47.115Z,96.10
2023-01-06T21:00:55.031Z,96.68
2023-01-06T21:06:02.441Z,96.76
2023-01-06T21:11:10.060Z,97.42
2023-01-06T21:16:18.650Z,98.22
2023-01-06T21:21:26.589Z,99.43
2023-01-06T21:26:35.585Z,100.00
2023-01-06T21:31:44.241Z,100.00
2023-01-06T21:36:52.421Z,100.00
2023-01-06T21:42:19.634Z,100.00
2023-01-06T21:47:27.685Z,100.00
2023-01-06T21:52:37.079Z,100.00
2023-01-06T21:57:45.801Z,100.00
2023-01-06T22:02:56.299Z,100.00
2023-01-06T22:08:06.926Z,100.00
2023-01-06T22:13:19.446Z,100.00
2023-01-06T22:18:29.307Z,100.00
2023-01-06T22:23:38.470Z,100.00
2023-01-06T22:28:45.873Z,100.00
2023-01-06T22:33:54.058Z,100.00
2023-01-06T22:39:02.122Z,100.00
2023-01-06T22:44:10.128Z,100.00
2023-01-06T22:49:17.641Z,100.00
2023-01-06T22:54:26.420Z,100.00
2023-01-06T22:59:33.966Z,100.00
2023-01-06T23:04:41.579Z,100.00
2023-01-06T23:09:49.496Z,100.00
2023-01-06T23:14:57.621Z,100.00
2023-01-06T23:20:05.564Z,100.00
2023-01-06T23:25:13.266Z,100.00
2023-01-06T23:30:22.334Z,100.00
2023-01-06T23:35:30.565Z,100.00
2023-01-06T23:40:37.913Z,100.00
2023-01-06T23:45:45.536Z,100.00
2023-01-06T23:50:54.150Z,100.00
2023-01-06T23:56:04.401Z,100.00
